Tuesday, June 19, 2018, 4:03 PM EDT
Back to Local

KFDK, Frederick, Frederick Municipal Airport

Location: Frederick, MD, United States Lat: 39.417
Local Time: 4:03 PM EDT (20:03 GMT) Lon: -77.374
Time Zone: US/Eastern Elev: 301 ft

Show me the last for .
Show Coded

Time T Td Feel RH Dir Speed Gust Alt SLP Vis Weather Sky Remarks
2018-06-19 14:48 75 73 80 94 20° 6 - 29.90 - 10 -RA FEW015 SCT050 BKN060 None
2018-06-19 13:48 77 70 81 78 30° 14 - 29.89 - 10 VCTS SCT022 BKN039 BKN046 None
2018-06-19 12:55 84 68 88 58 30° 18 25 29.87 - 10 SCT037 BKN044 BKN060 None
2018-06-19 11:47 90 70 96 52 340° 8 - 29.87 - 10 SCT034 BKN041 BKN070 None
2018-06-19 10:47 88 70 93 55 310° 10 17 29.88 - 10 SCT050 None
2018-06-19 09:48 88 70 93 55 310° 9 - 29.88 - 10 SCT050 None
2018-06-19 08:47 84 68 88 58 - Calm - 29.88 - 10 CLR None
2018-06-19 07:48 79 70 83 74 - Calm - 29.89 - 10 SCT050 None
2018-06-19 06:45 77 68 80 73 - Calm - 29.89 - 10 CLR None
2018-06-19 06:25 77 68 80 73 - Calm - 29.88 - 10 CLR None
2018-06-19 06:05 75 70 79 83 30° 3 - 29.89 - 10 CLR None
2018-06-19 05:45 77 68 80 73 - Calm - 29.89 - 10 CLR None
2018-06-19 05:25 79 66 81 65 330° 3 - 29.89 - 10 CLR None
2018-06-19 05:05 81 66 83 61 340° 3 - 29.88 - 10 SCT048 None
2018-06-19 04:45 79 68 82 69 340° 5 - 29.87 - 10 SCT048 None
2018-06-19 04:25 79 68 82 69 - Calm - 29.87 - 10 CLR None
2018-06-19 04:05 79 68 82 69 - Calm - 29.87 - 10 CLR None
2018-06-19 03:45 79 68 82 69 - Calm - 29.87 - 10 CLR None
2018-06-19 03:25 81 66 83 61 - Calm - 29.87 - 10 CLR None
2018-06-19 03:05 81 66 83 61 190° 5 - 29.86 - 10 CLR None
2018-06-19 02:45 82 66 85 58 - Calm - 29.87 - 10 CLR None
2018-06-19 02:25 81 66 83 61 150° 5 - 29.87 - 10 CLR None
2018-06-19 02:05 82 66 85 58 220° 5 - 29.87 - 10 CLR None
2018-06-19 01:45 82 64 85 54 240° 8 - 29.88 - 10 CLR None
2018-06-19 01:25 82 64 85 54 250° 6 - 29.90 - 10 CLR None
2018-06-19 01:05 79 70 83 74 220° 3 - 29.91 - 10 CLR None
2018-06-19 00:45 82 68 86 61 200° 3 - 29.91 - 10 CLR None
2018-06-19 00:25 82 68 86 61 210° 6 - 29.92 - 10 CLR None
2018-06-19 00:05 82 68 86 61 210° 6 - 29.92 - 10 SCT120 None
2018-06-18 23:40 86 66 89 51 230° 7 - 29.92 - 10 CLR None
2018-06-18 23:25 86 66 89 51 240° 9 - 29.92 - 10 CLR None
2018-06-18 23:05 82 70 87 65 240° 9 - 29.92 - 10 CLR None
2018-06-18 22:45 82 72 88 69 220° 7 - 29.93 - 10 CLR None
2018-06-18 22:25 82 72 88 69 210° 7 - 29.92 - 10 CLR None
2018-06-18 22:05 82 72 88 69 190° 6 - 29.92 - 10 CLR None
2018-06-18 21:45 82 72 88 69 190° 6 - 29.91 - 10 CLR None
2018-06-18 21:25 82 72 88 69 180° 3 - 29.90 - 10 CLR None
2018-06-18 21:05 84 72 90 66 180° 3 - 29.90 - 10 CLR None
2018-06-18 19:48 90 72 97 55 200° 5 - 29.90 - 10 CLR None
2018-06-18 18:48 93 66 98 41 250° 12 - 29.91 - 10 CLR None
2018-06-18 17:48 91 68 97 46 170° 3 - 29.94 - 10 CLR None
2018-06-18 16:48 88 73 96 62 170° 3 - 29.96 - 10 CLR None

Support USWX by starting your Amazon purchase here.